Time,TemperatureF,DewpointF,PressureIn,WindDirection,WindDirectionDegrees,WindSpeedMPH,WindSpeedGustMPH,Humidity,HourlyPrecipIn,Conditions,Clouds,dailyrainin,SoftwareType,DateUTC
2013-07-08 00:00:00,81.2,32.0,29.74,SSW,200,4.0,-999.0,17,-99.99,,,0.00,weatherlink.com 1.10,2013-07-08 07:00:00,
2013-07-08 00:15:00,80.5,33.0,29.74,SSW,200,5.0,-999.0,18,-99.99,,,0.00,weatherlink.com 1.10,2013-07-08 07:15:00,
2013-07-08 00:31:00,80.3,33.0,29.74,SSW,200,2.0,-999.0,18,-99.99,,,0.00,weatherlink.com 1.10,2013-07-08 07:31:00,
2013-07-08 00:46:00,79.8,33.0,29.74,SSW,200,0.0,-999.0,18,-99.99,,,0.00,weatherlink.com 1.10,2013-07-08 07:46:00,
2013-07-08 01:01:00,79.0,32.0,29.75,SSW,200,0.0,-999.0,18,-99.99,,,0.00,weatherlink.com 1.10,2013-07-08 08:01:00,
2013-07-08 01:16:00,78.1,34.0,29.76,SSW,200,0.0,-999.0,20,-99.99,,,0.00,weatherlink.com 1.10,2013-07-08 08:16:00,
2013-07-08 01:31:00,77.7,34.0,29.76,SSW,200,0.0,-999.0,20,-99.99,,,0.00,weatherlink.com 1.10,2013-07-08 08:31:00,
2013-07-08 01:46:00,77.2,34.0,29.76,SSW,200,0.0,-999.0,21,-99.99,,,0.00,weatherlink.com 1.10,2013-07-08 08:46:00,
2013-07-08 02:01:00,76.5,35.0,29.76,SSW,200,0.0,-999.0,22,-99.99,,,0.00,weatherlink.com 1.10,2013-07-08 09:01:00,
2013-07-08 02:16:00,75.3,35.0,29.77,SSW,200,0.0,-999.0,23,-99.99,,,0.00,weatherlink.com 1.10,2013-07-08 09:16:00,
2013-07-08 02:31:00,73.9,35.0,29.77,SSW,200,0.0,-999.0,24,-99.99,,,0.00,weatherlink.com 1.10,2013-07-08 09:31:00,
2013-07-08 02:46:00,73.0,35.0,29.77,SSW,200,0.0,-999.0,25,-99.99,,,0.00,weatherlink.com 1.10,2013-07-08 09:46:00,
2013-07-08 03:01:00,72.5,36.0,29.77,SSW,200,0.0,-999.0,26,-99.99,,,0.00,weatherlink.com 1.10,2013-07-08 10:01:00,
2013-07-08 03:17:00,72.0,36.0,29.77,SSW,200,0.0,-999.0,27,-99.99,,,0.00,weatherlink.com 1.10,2013-07-08 10:17:00,
2013-07-08 03:32:00,71.3,36.0,29.77,SSW,200,0.0,-999.0,27,-99.99,,,0.00,weatherlink.com 1.10,2013-07-08 10:32:00,
2013-07-08 03:47:00,70.4,34.0,29.78,SSW,200,0.0,-999.0,26,-99.99,,,0.00,weatherlink.com 1.10,2013-07-08 10:47:00,
2013-07-08 04:02:00,69.3,33.0,29.78,SSW,200,0.0,-999.0,26,-99.99,,,0.00,weatherlink.com 1.10,2013-07-08 11:02:00,
2013-07-08 04:17:00,68.6,33.0,29.78,SSW,200,0.0,-999.0,27,-99.99,,,0.00,weatherlink.com 1.10,2013-07-08 11:17:00,
2013-07-08 04:32:00,68.1,34.0,29.79,SSW,200,0.0,-999.0,28,-99.99,,,0.00,weatherlink.com 1.10,2013-07-08 11:32:00,
2013-07-08 04:47:00,67.8,33.0,29.79,SSW,200,0.0,-999.0,28,-99.99,,,0.00,weatherlink.com 1.10,2013-07-08 11:47:00,
2013-07-08 05:02:00,67.4,33.0,29.80,SSW,200,0.0,-999.0,28,-99.99,,,0.00,weatherlink.com 1.10,2013-07-08 12:02:00,
2013-07-08 05:17:00,67.1,35.0,29.81,SSW,200,0.0,-999.0,30,-99.99,,,0.00,weatherlink.com 1.10,2013-07-08 12:17:00,
2013-07-08 05:32:00,66.6,34.0,29.81,SSW,200,0.0,-999.0,30,-99.99,,,0.00,weatherlink.com 1.10,2013-07-08 12:32:00,
2013-07-08 05:47:00,66.1,34.0,29.82,SSW,200,0.0,-999.0,30,-99.99,,,0.00,weatherlink.com 1.10,2013-07-08 12:47:00,
2013-07-08 06:03:00,65.5,31.0,29.82,SSW,200,0.0,-999.0,28,-99.99,,,0.00,weatherlink.com 1.10,2013-07-08 13:03:00,
2013-07-08 06:18:00,65.0,32.0,29.83,SSW,200,0.0,-999.0,29,-99.99,,,0.00,weatherlink.com 1.10,2013-07-08 13:18:00,
2013-07-08 06:33:00,65.0,32.0,29.83,SSW,200,0.0,-999.0,29,-99.99,,,0.00,weatherlink.com 1.10,2013-07-08 13:33:00,
2013-07-08 06:48:00,66.4,31.0,29.83,SSW,200,0.0,-999.0,27,-99.99,,,0.00,weatherlink.com 1.10,2013-07-08 13:48:00,
2013-07-08 07:03:00,68.6,34.0,29.83,SSW,200,0.0,-999.0,28,-99.99,,,0.00,weatherlink.com 1.10,2013-07-08 14:03:00,
2013-07-08 07:18:00,71.3,35.0,29.84,SSW,200,0.0,-999.0,26,-99.99,,,0.00,weatherlink.com 1.10,2013-07-08 14:18:00,
2013-07-08 07:33:00,73.5,36.0,29.84,SSW,200,0.0,-999.0,25,-99.99,,,0.00,weatherlink.com 1.10,2013-07-08 14:33:00,
2013-07-08 07:48:00,76.1,36.0,29.84,SSW,200,0.0,-999.0,23,-99.99,,,0.00,weatherlink.com 1.10,2013-07-08 14:48:00,
2013-07-08 08:03:00,79.2,36.0,29.83,South,182,0.0,-999.0,21,-99.99,,,0.00,weatherlink.com 1.10,2013-07-08 15:03:00,
2013-07-08 08:18:00,80.7,36.0,29.83,South,182,3.0,-999.0,20,-99.99,,,0.00,weatherlink.com 1.10,2013-07-08 15:18:00,
2013-07-08 08:33:00,81.8,36.0,29.84,South,182,2.0,-999.0,19,-99.99,,,0.00,weatherlink.com 1.10,2013-07-08 15:33:00,
2013-07-08 08:49:00,84.0,35.0,29.84,South,181,2.0,-999.0,17,-99.99,,,0.00,weatherlink.com 1.10,2013-07-08 15:49:00,
2013-07-08 09:04:00,86.3,32.0,29.83,South,170,0.0,-999.0,14,-99.99,,,0.00,weatherlink.com 1.10,2013-07-08 16:04:00,
2013-07-08 09:19:00,89.0,32.0,29.83,South,171,3.0,-999.0,13,-99.99,,,0.00,weatherlink.com 1.10,2013-07-08 16:19:00,
2013-07-08 09:34:00,91.0,34.0,29.83,South,173,2.0,-999.0,13,-99.99,,,0.00,weatherlink.com 1.10,2013-07-08 16:34:00,
2013-07-08 09:49:00,92.7,31.0,29.82,South,169,3.0,-999.0,11,-99.99,,,0.00,weatherlink.com 1.10,2013-07-08 16:49:00,
2013-07-08 10:19:00,95.1,28.0,29.82,SSE,154,3.0,-999.0,9,-99.99,,,0.00,weatherlink.com 1.10,2013-07-08 17:19:00,
2013-07-08 11:20:00,98.0,27.0,29.81,South,185,11.0,-999.0,8,-99.99,,,0.00,weatherlink.com 1.10,2013-07-08 18:20:00,
2013-07-08 11:35:00,98.5,24.0,29.81,SE,127,3.0,-999.0,7,-99.99,,,0.00,weatherlink.com 1.10,2013-07-08 18:35:00,
2013-07-08 11:50:00,99.0,25.0,29.80,South,171,9.0,-999.0,7,-99.99,,,0.00,weatherlink.com 1.10,2013-07-08 18:50:00,
2013-07-08 12:05:00,98.7,24.0,29.80,ESE,111,3.0,-999.0,7,-99.99,,,0.00,weatherlink.com 1.10,2013-07-08 19:05:00,
2013-07-08 12:20:00,100.4,26.0,29.80,South,174,6.0,-999.0,7,-99.99,,,0.00,weatherlink.com 1.10,2013-07-08 19:20:00,
2013-07-08 13:05:00,101.2,23.0,29.79,South,172,10.0,-999.0,6,-99.99,,,0.00,weatherlink.com 1.10,2013-07-08 20:05:00,
2013-07-08 13:20:00,101.2,23.0,29.80,SW,220,5.0,-999.0,6,-99.99,,,0.00,weatherlink.com 1.10,2013-07-08 20:20:00,
2013-07-08 14:06:00,101.7,23.0,29.79,South,182,13.0,-999.0,6,-99.99,,,0.00,weatherlink.com 1.10,2013-07-08 21:06:00,
2013-07-08 14:21:00,102.3,27.0,29.79,South,174,17.0,-999.0,7,-99.99,,,0.00,weatherlink.com 1.10,2013-07-08 21:21:00,
2013-07-08 14:36:00,102.5,27.0,29.79,SSW,192,10.0,-999.0,7,-99.99,,,0.00,weatherlink.com 1.10,2013-07-08 21:36:00,
2013-07-08 15:06:00,101.7,27.0,29.79,South,180,21.0,-999.0,7,-99.99,,,0.00,weatherlink.com 1.10,2013-07-08 22:06:00,
2013-07-08 15:21:00,100.7,29.0,29.80,SSE,168,11.0,-999.0,8,-99.99,,,0.00,weatherlink.com 1.10,2013-07-08 22:21:00,
2013-07-08 15:36:00,100.7,29.0,29.80,South,170,22.0,-999.0,8,-99.99,,,0.00,weatherlink.com 1.10,2013-07-08 22:36:00,
2013-07-08 15:51:00,101.0,30.0,29.80,SSW,194,19.0,-999.0,8,-99.99,,,0.00,weatherlink.com 1.10,2013-07-08 22:51:00,
2013-07-08 17:07:00,100.4,29.0,29.81,SSW,192,15.0,-999.0,8,-99.99,,,0.00,weatherlink.com 1.10,2013-07-09 00:07:00,
2013-07-08 17:22:00,100.2,29.0,29.81,SSW,193,13.0,-999.0,8,-99.99,,,0.00,weatherlink.com 1.10,2013-07-09 00:22:00,
2013-07-08 17:37:00,99.7,29.0,29.81,SSW,192,10.0,-999.0,8,-99.99,,,0.00,weatherlink.com 1.10,2013-07-09 00:37:00,
2013-07-08 18:07:00,99.0,28.0,29.81,WSW,244,6.0,-999.0,8,-99.99,,,0.00,weatherlink.com 1.10,2013-07-09 01:07:00,
2013-07-08 18:22:00,99.2,28.0,29.81,West,269,10.0,-999.0,8,-99.99,,,0.00,weatherlink.com 1.10,2013-07-09 01:22:00,
2013-07-08 18:37:00,98.5,28.0,29.81,West,267,15.0,-999.0,8,-99.99,,,0.00,weatherlink.com 1.10,2013-07-09 01:37:00,
2013-07-08 19:07:00,97.5,32.0,29.82,WNW,284,10.0,-999.0,10,-99.99,,,0.00,weatherlink.com 1.10,2013-07-09 02:07:00,
2013-07-08 19:22:00,96.6,32.0,29.80,WNW,292,10.0,-999.0,10,-99.99,,,0.00,weatherlink.com 1.10,2013-07-09 02:22:00,
2013-07-08 19:37:00,95.4,33.0,29.82,WNW,288,9.0,-999.0,11,-99.99,,,0.00,weatherlink.com 1.10,2013-07-09 02:37:00,
2013-07-08 20:07:00,92.5,31.0,29.83,WNW,290,11.0,-999.0,11,-99.99,,,0.00,weatherlink.com 1.10,2013-07-09 03:07:00,
2013-07-08 20:23:00,91.4,32.0,29.81,WNW,285,7.0,-999.0,12,-99.99,,,0.00,weatherlink.com 1.10,2013-07-09 03:23:00,
2013-07-08 20:38:00,90.7,31.0,29.82,West,279,6.0,-999.0,12,-99.99,,,0.00,weatherlink.com 1.10,2013-07-09 03:38:00,
2013-07-08 20:53:00,90.1,31.0,29.83,WNW,288,6.0,-999.0,12,-99.99,,,0.00,weatherlink.com 1.10,2013-07-09 03:53:00,
2013-07-08 21:08:00,88.4,35.0,29.84,South,175,0.0,-999.0,15,-99.99,,,0.00,weatherlink.com 1.10,2013-07-09 04:08:00,
2013-07-08 21:23:00,85.7,36.0,29.83,South,184,3.0,-999.0,17,-99.99,,,0.00,weatherlink.com 1.10,2013-07-09 04:23:00,
2013-07-08 21:38:00,85.1,36.0,29.84,South,187,5.0,-999.0,17,-99.99,,,0.00,weatherlink.com 1.10,2013-07-09 04:38:00,
2013-07-08 21:53:00,84.0,36.0,29.85,South,188,0.0,-999.0,18,-99.99,,,0.00,weatherlink.com 1.10,2013-07-09 04:53:00,
2013-07-08 22:08:00,83.0,35.0,29.86,South,188,0.0,-999.0,18,-99.99,,,0.00,weatherlink.com 1.10,2013-07-09 05:08:00,
2013-07-08 22:23:00,81.6,35.0,29.86,South,188,5.0,-999.0,19,-99.99,,,0.00,weatherlink.com 1.10,2013-07-09 05:23:00,
2013-07-08 22:38:00,81.4,35.0,29.86,SSW,192,1.0,-999.0,19,-99.99,,,0.00,weatherlink.com 1.10,2013-07-09 05:38:00,
2013-07-08 22:53:00,81.6,35.0,29.86,SSW,196,6.0,-999.0,19,-99.99,,,0.00,weatherlink.com 1.10,2013-07-09 05:53:00,
2013-07-08 23:08:00,80.7,35.0,29.87,SSW,196,0.0,-999.0,19,-99.99,,,0.00,weatherlink.com 1.10,2013-07-09 06:08:00,
2013-07-08 23:23:00,79.4,35.0,29.87,SSW,200,0.0,-999.0,20,-99.99,,,0.00,weatherlink.com 1.10,2013-07-09 06:23:00,
2013-07-08 23:38:00,78.8,34.0,29.88,SSW,200,0.0,-999.0,20,-99.99,,,0.00,weatherlink.com 1.10,2013-07-09 06:38:00,
2013-07-08 23:54:00,78.3,35.0,29.88,SSW,200,0.0,-999.0,21,-99.99,,,0.00,weatherlink.com 1.10,2013-07-09 06:54:00,